Terminal Aerodrome Forecast
Issued by NWS

Home | Current Version | Previous Version | Text Only | Print | Product List | Glossary On
Versions: 1 2 3 4 5 6 7 8 9 10 11 12 13 14
793
FTUS43 KMPX 031741
TAFRNH
TAF
KRNH 031741Z 0318/0418 20005KT P6SM OVC026
     FM032200 14006KT P6SM OVC035
     FM040600 14007KT 5SM -SN OVC030
     FM040800 15008KT 1 1/2SM -SN BR OVC008
     FM041600 17008KT 5SM -SN OVC008=

USA.gov is the U.S. government's official web portal to all federal, state and local government web resources and services.